UUWW/VKO METAR and TAF weather

Enter ICAO airport designator
Station Type Date Time Source
UUWW METAR 2020/01/27 13:30 UTC NOAA

UUWW 271330Z 04003MPS CAVOK M01/M07 Q1014 R06/190050 NOSIG


Station Type Date Time Source
UUWW Decoded METAR 2020/01/27 13:30 UTC NOAA

Moscow / Vnukovo , Russia (UUWW) 55-39N 037-16E
Jan 27, 2020 - 08:30 AM EST / 2020.01.27 1330 UTC
Wind: from the NE (040 degrees) at 7 MPH (6 KT):0
Visibility: greater than 7 mile(s):0
Temperature: 30 F (-1 C)
Windchill: 23 F (-5 C):1
Dew Point: 19 F (-7 C)
Relative Humidity: 63%
Pressure (altimeter): 29.94 in. Hg (1014 hPa)
ob: UUWW 271330Z 04003MPS CAVOK M01/M07 Q1014 R06/190050 NOSIG
cycle: 13

Station Type Date Time Source
UUWW TAF 2020/01/27 12:21 UTC NOAA

TAF UUWW 271050Z 2712/2812 03003G08MPS 9999 BKN015 TXM00/2812Z TNM05/2801Z
BECMG 2716/2718 12006G13MPS
BECMG 2718/2720 3100 -SN OVC007
TEMPO 2720/2809 0600 +SHSN BKN003 BKN011CB

Example: see airport list